Time;durP1;ratioP1;P1;durP2;ratioP2;P2;SDS_P1;SDS_P2;PMS_P1;PMS_P2;Temp;Humidity;BMP_temperature;BMP_pressure;BME280_temperature;BME280_humidity;BME280_pressure;Samples;Min_cycle;Max_cycle;Signal;HPM_P1;HPM_P2
2022/06/05 00:02:07;;;;;;;33.53;13.60;;;;;;;21.43;79.42;95052.34;4975073;28;20242;-81
2022/06/05 00:04:44;;;;;;;27.95;13.40;;;;;;;21.02;79.05;94995.41;4970035;28;20182;-80
2022/06/05 00:07:26;;;;;;;21.67;13.65;;;;;;;21.02;78.85;95003.44;4972862;28;20275;-80
2022/06/05 00:10:00;;;;;;;44.05;20.13;;;;;;;21.28;79.36;95049.69;4965393;28;20670;-80
2022/06/05 00:12:40;;;;;;;26.63;16.48;;;;;;;21.27;79.39;95058.84;4974765;28;20273;-80
2022/06/05 00:15:06;;;;;;;42.80;22.15;;;;;;;20.32;79.56;94903.50;4979898;28;20177;-81
2022/06/05 00:17:31;;;;;;;36.90;19.25;;;;;;;21.17;79.24;95032.88;4975416;28;20170;-82
2022/06/05 00:19:57;;;;;;;31.60;15.98;;;;;;;20.90;79.84;95005.63;4976168;28;20192;-81
2022/06/05 00:22:22;;;;;;;20.40;12.77;;;;;;;21.23;79.67;95049.72;4969802;28;20235;-80
2022/06/05 00:24:48;;;;;;;29.13;16.95;;;;;;;20.59;79.81;94946.00;4971981;28;20253;-81
2022/06/05 00:27:20;;;;;;;20.83;10.20;;;;;;;21.25;79.17;95051.06;4980905;28;20173;-81
2022/06/05 00:29:58;;;;;;;24.67;12.07;;;;;;;20.99;78.91;95020.06;4975828;28;20230;-81
2022/06/05 00:32:32;;;;;;;15.32;9.77;;;;;;;21.22;78.64;95062.31;4981209;28;20215;-81
2022/06/05 00:34:57;;;;;;;14.13;7.88;;;;;;;20.86;78.07;95023.28;4997860;28;20185;-81
2022/06/05 00:37:38;;;;;;;12.68;7.85;;;;;;;20.43;78.66;94957.78;4983857;28;20252;-81
2022/06/05 00:40:26;;;;;;;16.75;7.38;;;;;;;21.13;78.65;95071.13;4993404;28;20186;-83
2022/06/05 00:42:52;;;;;;;12.75;6.72;;;;;;;21.07;78.76;95071.16;4962576;28;20647;-83
2022/06/05 00:45:19;;;;;;;26.25;13.70;;;;;;;21.14;78.32;95065.53;4984219;28;20265;-83
2022/06/05 00:47:46;;;;;;;9.00;5.80;;;;;;;21.02;78.38;95062.31;4983933;28;20173;-83
2022/06/05 00:50:25;;;;;;;27.60;15.60;;;;;;;20.70;78.53;95023.31;4980778;28;20261;-83
2022/06/05 00:52:55;;;;;;;24.50;12.65;;;;;;;20.86;78.81;95048.16;4982006;28;20197;-83
2022/06/05 00:55:22;;;;;;;14.00;6.68;;;;;;;20.96;78.48;95061.53;4982970;28;20622;-83
2022/06/05 00:57:48;;;;;;;25.05;12.05;;;;;;;20.62;78.43;95010.47;4984099;28;20264;-83
2022/06/05 01:00:19;;;;;;;13.50;7.18;;;;;;;20.93;78.63;95058.63;4999033;28;20296;-83
2022/06/05 01:02:49;;;;;;;17.05;9.45;;;;;;;20.86;78.90;95061.56;4999122;28;20928;-83
2022/06/05 01:05:16;;;;;;;23.30;9.82;;;;;;;20.83;79.70;95055.94;4959257;28;20190;-83
2022/06/05 01:07:42;;;;;;;14.18;6.88;;;;;;;20.85;79.71;95051.09;4984187;28;20211;-83
2022/06/05 01:10:08;;;;;;;11.98;7.35;;;;;;;20.59;79.19;95011.00;4976718;28;20193;-83
2022/06/05 01:12:44;;;;;;;17.42;7.80;;;;;;;20.61;79.05;95014.22;4982736;28;20185;-83
2022/06/05 01:15:10;;;;;;;13.52;7.55;;;;;;;20.93;78.88;95058.63;4983915;28;20169;-83
2022/06/05 01:17:41;;;;;;;16.23;7.95;;;;;;;20.93;78.88;95058.63;4998981;28;20607;-83
2022/06/05 01:20:40;;;;;;;21.33;10.30;;;;;;;20.89;79.59;95055.66;4997707;28;20215;-83
2022/06/05 01:23:37;;;;;;;24.95;14.05;;;;;;;20.90;79.52;95061.81;4981960;28;20173;-83
2022/06/05 01:26:10;;;;;;;24.50;11.63;;;;;;;20.69;79.14;95028.91;4976560;28;20170;-83
2022/06/05 01:28:44;;;;;;;31.15;17.52;;;;;;;20.77;79.49;95039.06;4981941;28;20178;-83
2022/06/05 01:31:22;;;;;;;41.08;24.35;;;;;;;20.81;79.91;95047.38;4983845;28;20196;-83
2022/06/05 01:33:56;;;;;;;11.52;6.97;;;;;;;20.51;79.59;95008.06;4982528;28;20173;-83
2022/06/05 01:36:34;;;;;;;16.90;11.20;;;;;;;20.65;79.41;95051.94;4983754;28;20279;-83
2022/06/05 01:39:06;;;;;;;40.75;22.75;;;;;;;20.63;80.48;95057.56;4983805;28;20188;-83
2022/06/05 01:41:46;;;;;;;36.78;20.30;;;;;;;20.64;80.41;95059.19;4983461;28;20173;-83
2022/06/05 01:44:17;;;;;;;12.68;5.93;;;;;;;20.52;80.86;95052.47;4988166;28;20182;-83
2022/06/05 01:46:43;;;;;;;44.78;26.77;;;;;;;20.44;81.43;95050.34;4987827;28;20173;-83
2022/06/05 01:49:18;;;;;;;25.08;15.70;;;;;;;20.26;81.45;95022.22;4984902;28;20181;-84
2022/06/05 01:51:59;;;;;;;20.88;12.98;;;;;;;20.38;81.59;95032.69;4988527;28;20755;-84
2022/06/05 01:54:33;;;;;;;25.95;11.48;;;;;;;20.39;81.60;95040.47;4987061;28;20177;-84
2022/06/05 01:57:00;;;;;;;16.35;10.55;;;;;;;20.19;82.01;95005.66;4985223;28;20169;-84
2022/06/05 01:59:43;;;;;;;20.70;13.45;;;;;;;20.55;81.76;95051.94;4985204;28;20260;-84
2022/06/05 02:02:13;;;;;;;32.83;15.88;;;;;;;20.53;81.29;95049.53;4992509;28;20251;-84
2022/06/05 02:04:51;;;;;;;38.08;24.38;;;;;;;20.56;81.10;95045.53;4985572;28;20201;-84
2022/06/05 02:07:21;;;;;;;14.80;9.27;;;;;;;20.57;80.92;95047.94;4983692;28;20173;-84
2022/06/05 02:09:55;;;;;;;13.40;6.65;;;;;;;20.54;81.05;95048.47;4994450;28;21724;-84
2022/06/05 02:12:22;;;;;;;12.02;6.03;;;;;;;20.34;81.28;95019.84;4985723;28;20220;-84
2022/06/05 02:14:48;;;;;;;16.05;5.80;;;;;;;20.21;82.00;95015.00;4986998;28;20177;-84
2022/06/05 02:17:14;;;;;;;12.82;5.32;;;;;;;20.13;81.94;95009.41;4983592;28;20178;-84
2022/06/05 02:19:41;;;;;;;22.33;11.73;;;;;;;20.26;82.17;95044.41;4989216;28;20610;-84
2022/06/05 02:22:25;;;;;;;28.25;15.77;;;;;;;20.15;82.25;95020.63;4986998;28;20181;-84
2022/06/05 02:24:53;;;;;;;30.80;17.77;;;;;;;20.35;81.65;95042.03;4974063;28;20251;-84
2022/06/05 02:27:24;;;;;;;14.82;8.27;;;;;;;20.37;81.38;95047.94;4986758;28;20184;-83
2022/06/05 02:29:50;;;;;;;15.77;9.90;;;;;;;20.23;81.50;95028.13;4986689;28;20188;-84
2022/06/05 02:32:46;;;;;;;8.63;5.72;;;;;;;20.18;81.13;95026.22;4999558;28;20633;-84
2022/06/05 02:35:11;;;;;;;19.75;10.70;;;;;;;20.30;81.14;95042.03;4996225;28;20645;-84
2022/06/05 02:37:56;;;;;;;32.85;18.85;;;;;;;20.24;81.53;95046.53;4985517;28;20233;-84
2022/06/05 02:40:31;;;;;;;19.88;13.50;;;;;;;20.20;81.74;95036.66;4986538;28;20173;-84
2022/06/05 02:43:05;;;;;;;14.68;9.10;;;;;;;20.22;81.70;95034.53;4985187;28;20176;-84
2022/06/05 02:45:46;;;;;;;11.57;6.60;;;;;;;20.02;81.71;95000.56;4984392;28;20173;-84
2022/06/05 02:48:48;;;;;;;13.85;7.63;;;;;;;19.90;81.65;94986.63;4984591;28;20232;-85
2022/06/05 02:51:19;;;;;;;16.02;7.22;;;;;;;20.18;81.92;95030.78;4985721;28;20239;-85
2022/06/05 02:53:49;;;;;;;13.35;6.75;;;;;;;19.87;81.41;94977.31;4983314;28;20272;-85
2022/06/05 02:56:15;;;;;;;11.55;5.70;;;;;;;20.01;81.29;95016.84;4995317;28;20186;-84
2022/06/05 02:58:40;;;;;;;8.68;5.55;;;;;;;19.79;82.46;95011.75;4980091;28;20654;-84
2022/06/05 03:03:50;;;;;;;15.23;6.00;;;;;;;19.34;83.38;94950.97;4986186;28;20239;-84
2022/06/05 03:06:15;;;;;;;13.32;5.82;;;;;;;19.79;83.35;95031.25;4984739;28;20624;-84
2022/06/05 03:08:40;;;;;;;11.27;6.07;;;;;;;19.45;83.83;94973.97;4983907;28;20184;-84
2022/06/05 03:11:06;;;;;;;15.57;6.45;;;;;;;19.74;83.65;95017.88;4982546;28;20300;-84
2022/06/05 03:13:32;;;;;;;12.00;6.35;;;;;;;19.45;83.85;94977.44;4980603;28;20208;-84
2022/06/05 03:15:57;;;;;;;14.43;5.88;;;;;;;19.67;83.56;94997.81;4985952;28;20642;-84
2022/06/05 03:18:23;;;;;;;13.48;6.00;;;;;;;19.66;83.15;94991.69;4984789;28;20173;-84
2022/06/05 03:20:48;;;;;;;11.73;6.65;;;;;;;19.53;83.19;94979.66;4983592;28;20212;-84
2022/06/05 03:23:14;;;;;;;20.63;7.25;;;;;;;19.59;83.35;94993.81;4982441;28;20235;-84
2022/06/05 03:25:41;;;;;;;12.73;6.15;;;;;;;19.78;83.35;95015.50;4984570;28;20643;-84
2022/06/05 03:28:08;;;;;;;20.55;7.25;;;;;;;19.70;82.80;94987.44;4983401;28;20638;-84
2022/06/05 03:30:37;;;;;;;12.20;6.65;;;;;;;19.37;82.33;94921.09;4982105;28;20205;-84
2022/06/05 03:33:02;;;;;;;12.48;6.82;;;;;;;20.02;82.36;95023.81;4982300;28;20177;-84
2022/06/05 03:35:27;;;;;;;13.45;6.47;;;;;;;19.88;82.52;94996.81;4987307;28;20261;-84
2022/06/05 03:37:53;;;;;;;14.52;7.30;;;;;;;19.94;82.59;94999.22;4990621;28;20734;-84
2022/06/05 03:40:18;;;;;;;17.42;7.18;;;;;;;20.21;82.00;95031.06;4994990;28;20216;-84
2022/06/05 03:42:44;;;;;;;13.45;6.95;;;;;;;20.24;82.15;95000.28;4985652;28;20176;-85
2022/06/05 03:45:15;;;;;;;12.18;6.47;;;;;;;20.51;81.61;95024.13;4983938;28;20642;-86
2022/06/05 03:47:41;;;;;;;15.10;6.10;;;;;;;20.89;81.38;95061.03;4982077;28;20166;-85
2022/06/05 03:50:07;;;;;;;13.88;6.72;;;;;;;20.75;79.99;95011.81;4983078;28;20650;-86
2022/06/05 03:52:33;;;;;;;11.50;6.75;;;;;;;21.20;80.02;95064.47;4983008;28;20184;-86
2022/06/05 03:54:58;;;;;;;14.27;7.13;;;;;;;21.34;78.86;95062.81;4983078;28;20214;-79
2022/06/05 03:57:24;;;;;;;15.15;6.45;;;;;;;21.49;78.16;95070.00;4985183;28;20177;-79
2022/06/05 03:59:49;;;;;;;12.48;6.43;;;;;;;21.47;77.30;95064.09;4984959;28;20165;-79
2022/06/05 04:02:15;;;;;;;13.00;6.18;;;;;;;21.63;77.41;95076.38;4994229;28;20169;-78
2022/06/05 04:04:40;;;;;;;11.95;5.80;;;;;;;21.76;76.41;95078.47;4984878;28;20263;-78
2022/06/05 04:07:06;;;;;;;13.05;6.32;;;;;;;21.89;75.81;95079.72;4983724;28;20173;-78
2022/06/05 04:09:31;;;;;;;8.23;5.85;;;;;;;22.08;75.27;95075.38;4984862;28;20185;-78
2022/06/05 04:11:57;;;;;;;10.65;5.72;;;;;;;22.10;73.99;95061.69;4985614;28;20209;-79
2022/06/05 04:14:22;;;;;;;8.85;5.95;;;;;;;22.17;74.48;95056.81;4984143;28;20646;-79
2022/06/05 04:16:48;;;;;;;12.30;7.28;;;;;;;22.36;74.47;95056.97;4989609;28;20257;-79
2022/06/05 04:19:13;;;;;;;12.55;6.63;;;;;;;22.63;73.21;95059.97;4982296;28;20266;-79
2022/06/05 04:21:44;;;;;;;12.35;6.13;;;;;;;22.90;72.85;95081.00;4990583;28;20255;-79
2022/06/05 04:24:11;;;;;;;12.98;6.13;;;;;;;23.00;71.77;95054.06;4976483;28;20177;-79
2022/06/05 04:26:38;;;;;;;7.68;5.57;;;;;;;23.11;71.31;95044.78;4984579;28;20184;-79
2022/06/05 04:29:04;;;;;;;17.38;7.68;;;;;;;23.30;71.00;95040.28;4984577;28;20592;-79
2022/06/05 04:31:33;;;;;;;11.40;7.38;;;;;;;23.68;70.49;95061.94;4983952;28;20215;-79
2022/06/05 04:34:02;;;;;;;11.48;8.32;;;;;;;23.70;69.20;95051.66;4985621;28;20211;-78
2022/06/05 04:36:28;;;;;;;10.15;6.57;;;;;;;23.96;69.04;95068.25;4986573;28;20236;-78
2022/06/05 04:38:53;;;;;;;13.00;7.10;;;;;;;24.04;69.39;95063.03;4986397;28;20276;-79
2022/06/05 04:41:20;;;;;;;12.70;6.95;;;;;;;24.09;68.51;95043.34;4980785;28;20177;-79
2022/06/05 04:43:47;;;;;;;13.82;6.43;;;;;;;24.22;67.82;95039.94;4988327;28;20197;-79
2022/06/05 04:46:12;;;;;;;13.18;6.63;;;;;;;24.39;67.17;95031.34;4979537;28;20181;-79
2022/06/05 04:48:37;;;;;;;22.02;7.40;;;;;;;24.76;65.79;95060.91;4986676;28;20192;-79
2022/06/05 04:51:08;;;;;;;11.40;5.97;;;;;;;24.88;65.41;95038.91;4982322;28;20201;-79
2022/06/05 04:53:34;;;;;;;12.40;6.80;;;;;;;25.33;64.71;95053.47;4983801;28;20212;-78
2022/06/05 04:56:05;;;;;;;9.23;5.93;;;;;;;25.61;64.20;95051.59;4984637;28;20205;-79
2022/06/05 04:58:31;;;;;;;13.90;6.32;;;;;;;25.85;63.19;95063.00;4988491;28;20204;-79
2022/06/05 05:00:56;;;;;;;19.15;7.28;;;;;;;25.99;62.09;95046.78;4984242;28;20674;-79
2022/06/05 05:03:21;;;;;;;10.68;6.82;;;;;;;26.48;61.35;95072.97;4988457;28;20230;-79
2022/06/05 05:05:47;;;;;;;12.55;7.00;;;;;;;26.81;59.71;95076.22;4988149;28;20173;-78
2022/06/05 05:08:12;;;;;;;10.25;7.13;;;;;;;26.82;58.37;95040.00;4995273;28;20182;-82
2022/06/05 05:10:38;;;;;;;14.05;6.90;;;;;;;27.24;57.56;95059.53;4984399;28;20219;-82
2022/06/05 05:13:03;;;;;;;14.20;6.20;;;;;;;27.51;57.17;95069.31;4984632;28;20184;-82
2022/06/05 05:15:29;;;;;;;10.88;5.93;;;;;;;27.70;57.23;95061.78;4989768;28;20568;-82
2022/06/05 05:17:54;;;;;;;11.27;5.78;;;;;;;28.19;55.96;95062.59;4975143;28;20651;-82
2022/06/05 05:20:20;;;;;;;8.60;5.97;;;;;;;28.45;54.79;95039.78;4990254;28;20185;-82
2022/06/05 05:22:45;;;;;;;10.30;4.97;;;;;;;29.17;54.30;95087.09;4981901;28;20185;-82
2022/06/05 05:25:12;;;;;;;9.68;5.22;;;;;;;29.47;51.93;95071.75;4988043;28;20184;-82
2022/06/05 05:27:37;;;;;;;13.35;5.80;;;;;;;29.49;51.22;95026.09;4981454;28;20694;-82
2022/06/05 05:30:06;;;;;;;18.92;6.65;;;;;;;30.17;51.21;95086.59;4985618;28;20170;-82
2022/06/05 05:32:31;;;;;;;13.30;8.02;;;;;;;30.45;50.07;95087.66;4988219;28;20264;-82
2022/06/05 05:34:57;;;;;;;20.95;10.48;;;;;;;30.73;49.14;95094.22;4989954;28;20173;-82
2022/06/05 05:37:22;;;;;;;19.13;8.82;;;;;;;30.83;50.15;95070.47;4986937;28;20241;-82
2022/06/05 05:42:32;;;;;;;17.35;8.60;;;;;;;31.23;48.94;95087.06;4983492;28;20241;-82
2022/06/05 05:44:59;;;;;;;10.30;6.15;;;;;;;31.44;47.99;95085.88;4987601;28;20260;-82
2022/06/05 05:47:30;;;;;;;17.23;8.60;;;;;;;31.69;47.54;95091.38;4980667;28;20173;-82
2022/06/05 05:50:01;;;;;;;15.52;7.85;;;;;;;31.74;47.89;95066.66;4991587;28;20174;-82
2022/06/05 05:52:28;;;;;;;23.08;7.70;;;;;;;31.85;47.43;95078.69;4985048;28;20205;-82
2022/06/05 05:54:54;;;;;;;14.38;5.57;;;;;;;31.76;48.80;95081.50;4989673;28;20703;-82
2022/06/05 05:57:20;;;;;;;20.65;7.25;;;;;;;31.57;49.02;95058.69;4983530;28;20253;-82
2022/06/05 05:59:46;;;;;;;15.52;7.22;;;;;;;31.53;47.79;95071.38;4983332;28;20177;-82
2022/06/05 06:02:16;;;;;;;15.45;6.88;;;;;;;31.55;49.90;95091.69;4987803;28;20188;-82
2022/06/05 06:04:43;;;;;;;18.50;7.90;;;;;;;31.50;50.22;95076.34;4989407;28;20179;-82
2022/06/05 06:07:09;;;;;;;20.88;7.03;;;;;;;31.45;49.00;95056.72;4986197;28;20182;-82
2022/06/05 06:09:35;;;;;;;16.83;7.60;;;;;;;31.86;47.62;95089.22;4980937;28;20184;-83
2022/06/05 06:12:02;;;;;;;13.32;6.40;;;;;;;31.82;48.39;95068.47;4978754;28;20358;-81
2022/06/05 06:14:27;;;;;;;12.20;6.57;;;;;;;31.77;48.20;95050.41;4982297;28;20236;-81
2022/06/05 06:16:53;;;;;;;14.40;6.85;;;;;;;31.66;48.43;95092.03;4988828;28;20574;-81
2022/06/05 06:19:18;;;;;;;9.63;5.88;;;;;;;31.24;47.51;95085.91;4990344;28;20177;-81
2022/06/05 06:21:44;;;;;;;12.88;8.18;;;;;;;31.29;50.06;95088.44;5003081;28;20177;-81
2022/06/05 06:24:11;;;;;;;9.15;5.78;;;;;;;31.43;51.11;95078.03;4989955;28;20166;-82
2022/06/05 06:26:36;;;;;;;12.80;6.95;;;;;;;31.79;48.46;95089.00;4990776;28;20189;-81
2022/06/05 06:29:02;;;;;;;16.00;5.65;;;;;;;32.05;49.99;95090.59;4989666;28;20236;-82
2022/06/05 06:31:28;;;;;;;21.17;6.93;;;;;;;32.27;47.54;95095.59;5002156;28;20232;-82
2022/06/05 06:33:53;;;;;;;8.98;6.20;;;;;;;32.33;47.41;95088.78;4977191;28;20170;-82
2022/06/05 06:36:19;;;;;;;14.90;6.30;;;;;;;32.34;48.45;95090.38;4987169;28;20221;-82
2022/06/05 06:38:45;;;;;;;14.15;6.68;;;;;;;32.44;47.52;95080.91;4987550;28;20251;-82
2022/06/05 06:41:14;;;;;;;14.93;5.93;;;;;;;32.59;48.53;95080.22;4987134;28;20235;-82
2022/06/05 06:43:41;;;;;;;11.43;5.47;;;;;;;32.76;47.64;95079.97;4992993;28;20702;-82
2022/06/05 06:46:07;;;;;;;11.70;5.53;;;;;;;32.82;47.39;95061.41;4981704;28;20186;-82
2022/06/05 06:48:33;;;;;;;11.77;6.45;;;;;;;32.79;47.92;95043.00;4982266;28;21015;-82
2022/06/05 06:51:00;;;;;;;9.93;5.60;;;;;;;33.16;47.87;95090.03;4993126;28;20197;-82
2022/06/05 06:53:26;;;;;;;9.00;4.90;;;;;;;33.29;46.44;95086.13;4990277;28;20174;-82
2022/06/05 06:55:52;;;;;;;11.27;5.32;;;;;;;33.25;45.39;95086.03;4991278;28;20651;-82
2022/06/05 06:58:18;;;;;;;15.23;6.25;;;;;;;32.47;47.17;95055.69;4999990;28;20231;-82
2022/06/05 07:00:44;;;;;;;10.20;5.68;;;;;;;32.16;47.83;95062.59;4992491;28;20189;-82
2022/06/05 07:03:10;;;;;;;6.55;5.07;;;;;;;32.18;49.42;95076.66;4976091;28;20177;-80
2022/06/05 07:05:36;;;;;;;7.82;4.97;;;;;;;32.12;48.61;95049.94;4980560;28;20177;-80
2022/06/05 07:08:01;;;;;;;8.27;4.63;;;;;;;32.35;48.57;95061.97;4985509;28;20180;-80
2022/06/05 07:10:27;;;;;;;7.95;4.75;;;;;;;32.75;47.79;95074.84;4982878;28;20232;-83
2022/06/05 07:12:53;;;;;;;8.88;4.53;;;;;;;32.72;46.36;95057.25;4980429;28;20170;-80
2022/06/05 07:15:19;;;;;;;10.48;4.72;;;;;;;33.02;46.31;95065.09;4979774;28;20574;-82
2022/06/05 07:17:45;;;;;;;6.65;5.07;;;;;;;33.14;45.71;95079.44;4981538;28;20182;-81
2022/06/05 07:20:11;;;;;;;9.65;5.05;;;;;;;33.17;46.36;95077.97;4985100;28;20169;-81
2022/06/05 07:22:37;;;;;;;6.30;4.32;;;;;;;33.30;45.74;95090.44;4982324;28;20174;-81
2022/06/05 07:25:03;;;;;;;8.13;4.20;;;;;;;33.46;44.86;95068.63;4979428;28;20710;-81
2022/06/05 07:27:29;;;;;;;7.85;4.57;;;;;;;33.59;44.39;95051.81;4990617;28;20204;-84
2022/06/05 07:29:54;;;;;;;20.83;5.13;;;;;;;33.93;44.73;95077.66;4981619;28;20659;-84
2022/06/05 07:32:21;;;;;;;11.23;4.45;;;;;;;34.12;44.11;95082.38;4986431;28;20701;-84
2022/06/05 07:34:47;;;;;;;13.57;6.85;;;;;;;33.92;43.89;95031.53;5001038;28;20263;-84
2022/06/05 07:37:13;;;;;;;7.15;4.57;;;;;;;33.98;44.23;95073.88;4981565;28;20260;-84
2022/06/05 07:39:40;;;;;;;7.65;3.92;;;;;;;33.65;44.43;95027.72;4984655;28;20193;-84
2022/06/05 07:42:06;;;;;;;5.25;4.07;;;;;;;34.14;44.42;95068.38;4976361;28;20182;-84
2022/06/05 07:44:32;;;;;;;9.63;3.85;;;;;;;34.05;43.29;95024.81;4988562;28;20320;-83
2022/06/05 07:46:57;;;;;;;8.30;4.25;;;;;;;34.05;43.46;95030.28;4985105;28;20677;-83
2022/06/05 07:49:23;;;;;;;11.18;4.53;;;;;;;34.27;43.57;95054.25;4999868;28;20170;-84
2022/06/05 07:54:34;;;;;;;9.20;4.82;;;;;;;34.04;44.12;94999.44;4981196;28;20248;-82
2022/06/05 07:57:01;;;;;;;8.15;4.70;;;;;;;34.37;42.93;95047.44;4985048;28;20174;-83
2022/06/05 07:59:28;;;;;;;6.60;4.03;;;;;;;33.93;42.46;95031.19;4985099;28;20177;-83
2022/06/05 08:01:56;;;;;;;8.32;4.07;;;;;;;33.75;44.39;95019.03;4988355;28;20281;-83
2022/06/05 08:04:22;;;;;;;1999.90;999.90;;;;;;;33.32;43.05;95004.31;4984044;28;20552;-82
2022/06/05 08:06:50;;;;;;;26.50;7.55;;;;;;;33.27;45.42;95012.78;4979360;28;20177;-83
2022/06/05 08:09:15;;;;;;;7.10;4.97;;;;;;;33.59;44.17;95045.53;4982780;28;20548;-82
2022/06/05 08:11:42;;;;;;;7.90;4.07;;;;;;;33.46;42.19;95035.88;4976177;28;20217;-81
2022/06/05 08:14:10;;;;;;;12.63;4.60;;;;;;;33.14;43.62;95027.59;4983389;28;20596;-86
2022/06/05 08:16:35;;;;;;;8.93;4.25;;;;;;;33.42;44.22;95029.50;4978934;28;20268;-82
2022/06/05 08:19:00;;;;;;;8.23;4.15;;;;;;;33.68;42.27;95043.44;4975910;28;20178;-84
2022/06/05 08:21:26;;;;;;;55.05;8.00;;;;;;;32.74;43.37;95014.06;4999836;28;20204;-87
2022/06/05 08:23:52;;;;;;;13.88;4.60;;;;;;;32.44;45.28;95010.81;4982130;28;20213;-86
2022/06/05 08:26:18;;;;;;;8.23;4.18;;;;;;;32.81;45.87;95018.91;4984337;28;20178;-87
2022/06/05 08:28:43;;;;;;;8.02;4.20;;;;;;;33.14;44.03;95018.63;4976564;28;20220;-88
2022/06/05 08:31:09;;;;;;;11.07;5.03;;;;;;;33.09;41.90;94989.66;4981498;28;20189;-88
2022/06/05 08:33:35;;;;;;;13.77;5.43;;;;;;;32.61;43.49;95042.47;4988900;28;20208;-83
2022/06/05 08:36:01;;;;;;;6.43;4.07;;;;;;;32.42;45.25;95037.66;4975003;28;20264;-88
2022/06/05 08:41:29;;;;;;;6.85;3.75;;;;;;;32.57;43.02;95038.84;4981662;28;20197;-91
2022/06/05 08:44:16;;;;;;;12.18;4.25;;;;;;;32.66;45.15;95030.53;4984557;28;20243;-87
2022/06/05 08:47:06;;;;;;;6.03;3.42;;;;;;;32.46;45.29;95026.84;4990000;28;20172;-87
2022/06/05 08:49:50;;;;;;;7.78;3.60;;;;;;;32.69;44.35;95018.94;4980520;28;20261;-90
2022/06/05 08:52:27;;;;;;;6.25;3.22;;;;;;;33.10;45.84;95045.03;4989051;28;20247;-87
2022/06/05 08:54:58;;;;;;;6.40;3.47;;;;;;;33.10;41.70;95034.91;4971873;28;20172;-95
2022/06/05 08:57:54;;;;;;;9.88;3.22;;;;;;;33.32;42.86;95033.56;4992039;28;20235;-87
2022/06/05 09:01:18;;;;;;;7.28;3.53;;;;;;;33.05;40.74;94998.88;5006769;28;20185;-85
2022/06/05 09:03:56;;;;;;;11.25;3.28;;;;;;;32.92;41.49;94984.53;4933078;29;20197;-88
2022/06/05 09:06:45;;;;;;;8.40;3.75;;;;;;;33.30;41.48;95027.63;4942337;29;20174;-87
2022/06/05 09:09:18;;;;;;;56.22;5.28;;;;;;;33.22;41.52;95026.66;4966742;28;20186;-84
2022/06/05 09:11:49;;;;;;;11.23;3.30;;;;;;;33.31;43.08;95030.03;4971397;28;20713;-87
2022/06/05 09:14:49;;;;;;;6.45;3.00;;;;;;;33.46;42.01;95025.75;4987276;28;20177;-85
2022/06/05 09:17:17;;;;;;;1292.55;302.10;;;;;;;33.43;39.03;95020.16;4968470;28;20668;-92
2022/06/05 09:19:43;;;;;;;3.58;2.75;;;;;;;33.33;41.14;94984.06;4974246;28;20179;-89
2022/06/05 09:22:31;;;;;;;4.45;2.90;;;;;;;33.56;41.28;95025.19;4952587;28;20182;-83
2022/06/05 09:25:08;;;;;;;1064.28;978.95;;;;;;;33.20;38.34;95022.69;4972447;28;20181;-84
2022/06/05 09:27:55;;;;;;;43.45;40.22;;;;;;;33.12;40.94;95021.72;4972923;28;20162;-81
2022/06/05 09:30:35;;;;;;;81.03;76.32;;;;;;;33.19;39.52;95008.25;4972181;28;20254;-81
2022/06/05 09:33:18;;;;;;;1999.90;999.90;;;;;;;33.22;38.74;95012.22;4979783;28;20208;-81
2022/06/05 09:35:55;;;;;;;1999.90;999.90;;;;;;;33.24;38.77;95013.47;4955665;28;20182;-81
2022/06/05 09:38:26;;;;;;;1999.90;999.90;;;;;;;33.31;38.72;95010.13;4971715;28;20178;-81
2022/06/05 09:41:13;;;;;;;1999.90;999.90;;;;;;;33.28;39.87;94997.19;4967988;28;20663;-81
2022/06/05 09:43:57;;;;;;;1999.90;999.90;;;;;;;33.28;40.67;95003.44;4965620;28;20177;-81
2022/06/05 09:46:47;;;;;;;1999.90;999.90;;;;;;;33.29;38.88;95007.75;4970444;28;20617;-81
2022/06/05 09:49:25;;;;;;;1999.90;999.90;;;;;;;33.28;40.03;95005.38;4969050;28;20198;-83
2022/06/05 09:51:51;;;;;;;1999.90;999.90;;;;;;;33.06;40.18;94965.78;4971272;28;20241;-82
2022/06/05 09:54:24;;;;;;;1999.90;999.90;;;;;;;33.34;39.99;94995.78;4959529;28;20229;-82
2022/06/05 09:59:48;;;;;;;1999.90;999.90;;;;;;;33.01;40.00;94984.38;4954017;29;20249;-81
2022/06/05 10:02:15;;;;;;;1999.90;999.90;;;;;;;33.08;40.24;95003.66;4953279;28;20620;-81
2022/06/05 10:04:41;;;;;;;1999.90;999.90;;;;;;;32.93;38.94;94980.66;4954093;28;20175;-81
2022/06/05 10:07:18;;;;;;;1999.90;999.90;;;;;;;32.75;38.28;94973.94;4956978;28;20194;-81
2022/06/05 10:09:45;;;;;;;1999.90;999.90;;;;;;;32.56;40.58;94991.72;4978567;28;20184;-82
2022/06/05 10:12:23;;;;;;;1999.90;999.90;;;;;;;32.53;39.78;94995.13;4995610;28;20197;-81
2022/06/05 10:14:54;;;;;;;1999.90;999.90;;;;;;;32.16;39.44;94986.28;4994432;28;20634;-82
2022/06/05 10:17:38;;;;;;;517.47;473.98;;;;;;;31.88;40.94;94990.03;4996316;28;20211;-81
2022/06/05 10:20:12;;;;;;;29.80;27.83;;;;;;;31.90;41.40;94985.84;4995682;28;20161;-82
2022/06/05 10:22:49;;;;;;;63.63;59.15;;;;;;;32.05;41.32;94973.44;4995561;28;20174;-82
2022/06/05 10:25:35;;;;;;;867.25;813.03;;;;;;;32.04;39.81;94978.09;5010608;28;20173;-81
2022/06/05 10:28:09;;;;;;;18.13;16.73;;;;;;;32.00;41.83;94957.34;4990711;28;20178;-82
2022/06/05 10:31:00;;;;;;;1125.05;999.90;;;;;;;31.73;39.17;94970.56;4975733;28;20162;-81
2022/06/05 10:33:31;;;;;;;33.63;31.67;;;;;;;31.40;41.66;94948.06;4968483;28;20579;-82
2022/06/05 10:36:17;;;;;;;15.35;14.30;;;;;;;31.57;41.21;94963.38;4975633;28;20190;-81
2022/06/05 10:38:55;;;;;;;7.13;3.42;;;;;;;31.70;43.41;94954.88;4975899;28;20162;-82
2022/06/05 10:41:24;;;;;;;7.18;3.40;;;;;;;31.88;42.49;94962.81;4975736;28;20158;-81
2022/06/05 10:44:14;;;;;;;7.75;4.00;;;;;;;32.00;41.80;94957.34;4975468;28;20236;-84
2022/06/05 10:46:54;;;;;;;703.08;653.22;;;;;;;31.98;39.44;94949.50;4975530;28;20241;-82
2022/06/05 10:49:42;;;;;;;153.65;146.32;;;;;;;31.93;41.03;94949.72;4975250;28;20263;-82
2022/06/05 10:52:48;;;;;;;22.48;20.75;;;;;;;31.94;42.17;94950.53;4964249;28;20282;-82
2022/06/05 10:55:38;;;;;;;271.27;256.98;;;;;;;31.92;40.98;94948.13;4956000;28;20194;-82
2022/06/05 10:58:38;;;;;;;420.58;399.30;;;;;;;31.99;40.93;94947.56;4990389;28;20176;-82
2022/06/05 11:01:12;;;;;;;842.95;786.63;;;;;;;31.93;39.84;94936.09;4975493;28;20221;-82
2022/06/05 11:04:06;;;;;;;115.85;109.32;;;;;;;31.65;42.02;94908.03;4975388;28;20252;-82
2022/06/05 11:06:58;;;;;;;20.75;19.27;;;;;;;31.94;41.85;94936.91;4973953;28;20205;-82
2022/06/05 11:09:46;;;;;;;147.60;140.55;;;;;;;32.08;41.69;94940.06;4975170;28;20182;-82
2022/06/05 11:15:56;;;;;;;83.38;78.97;;;;;;;32.15;41.81;94935.59;4942551;28;20280;-82
2022/06/05 11:18:50;;;;;;;315.73;300.75;;;;;;;32.25;40.88;94922.66;4974088;28;20174;-82
2022/06/05 11:21:18;;;;;;;863.80;806.70;;;;;;;32.35;40.17;94933.84;4966146;28;20670;-82
2022/06/05 11:23:51;;;;;;;1072.32;991.17;;;;;;;32.05;39.83;94903.38;4975023;28;20173;-82
2022/06/05 11:26:32;;;;;;;1999.90;999.90;;;;;;;32.19;38.27;94927.53;4975089;28;20678;-82
2022/06/05 11:29:18;;;;;;;1999.90;999.90;;;;;;;32.12;34.65;94922.66;4975219;28;20158;-82
2022/06/05 11:32:21;;;;;;;1999.90;999.90;;;;;;;32.13;35.10;94926.97;4975102;28;20186;-82
2022/06/05 11:34:58;;;;;;;1999.90;999.90;;;;;;;32.15;33.54;94921.97;4974881;28;20162;-82
2022/06/05 11:37:50;;;;;;;542.05;289.92;;;;;;;32.15;31.63;94929.38;4974666;28;20237;-82
2022/06/05 11:40:24;;;;;;;554.30;301.52;;;;;;;32.07;31.70;94925.66;4974775;28;20166;-82
2022/06/05 11:43:18;;;;;;;77.25;73.35;;;;;;;31.91;33.21;94902.19;4974797;28;20174;-82
2022/06/05 11:46:22;;;;;;;1999.90;999.90;;;;;;;32.00;34.35;94924.66;4967812;28;20257;-82
2022/06/05 11:49:11;;;;;;;1999.90;999.90;;;;;;;31.95;37.01;94914.78;4953940;28;20201;-82
2022/06/05 11:51:48;;;;;;;1999.90;999.90;;;;;;;31.91;38.89;94915.81;4965175;28;20602;-83
2022/06/05 11:54:19;;;;;;;1999.90;999.90;;;;;;;31.83;36.77;94896.53;4978607;28;20172;-82
2022/06/05 11:56:57;;;;;;;1999.90;999.90;;;;;;;32.00;36.71;94922.69;4973504;28;20190;-83
2022/06/05 11:59:49;;;;;;;1999.90;999.90;;;;;;;31.74;35.42;94906.00;4988420;28;20264;-82